This is the latest recevied weather packets stored in our database for station/object OE5RPP. If no packets are shown the sender has not sent any weather packets the latest 10 day(s).
| Time | Temp. | Humidity | Pressure | Rain* | Wind** | Luminosity | Snow |
|---|---|---|---|---|---|---|---|
| 1788250218 | 20° C | 20% | 1024.9 hPa | 0 mm | - | - | - |
| 1788249618 | 19.44° C | 21% | 1024.9 hPa | 0 mm | - | - | - |
| 1788249019 | 19.44° C | 21% | 1024.9 hPa | 0 mm | - | - | - |
| 1788248419 | 19.44° C | 21% | 1024.9 hPa | 0 mm | - | - | - |
| 1788247817 | 19.44° C | 21% | 1024.9 hPa | 0 mm | - | - | - |
| 1788247217 | 18.89° C | 23% | 1024.9 hPa | 0 mm | - | - | - |
| 1788246617 | 18.89° C | 31% | 1024.9 hPa | 0 mm | - | - | - |
| 1788246018 | 18.33° C | 34% | 1024.9 hPa | 0 mm | - | - | - |
| 1788245418 | 17.78° C | 36% | 1024.9 hPa | 0 mm | - | - | - |
| 1788244818 | 17.78° C | 39% | 1024.9 hPa | 0 mm | - | - | - |
| 1788244219 | 17.22° C | 40% | 1024.9 hPa | 0 mm | - | - | - |
| 1788243618 | 17.22° C | 42% | 1024.9 hPa | 0 mm | - | - | - |
| 1788243018 | 16.67° C | 43% | 1024.9 hPa | 0 mm | - | - | - |
| 1788242418 | 16.11° C | 43% | 1024.9 hPa | 0 mm | - | - | - |
| 1788241817 | 15.56° C | 45% | 1024.9 hPa | 0 mm | - | - | - |
| 1788241217 | 15.56° C | 45% | 1024.9 hPa | 0 mm | - | - | - |
| 1788240617 | 15° C | 45% | 1024.9 hPa | 0 mm | - | - | - |
| 1788240019 | 14.44° C | 43% | 1024.9 hPa | 0 mm | - | - | - |
| 1788239419 | 14.44° C | 42% | 1024.9 hPa | 0 mm | - | - | - |
| 1788238818 | 14.44° C | 41% | 1024.9 hPa | 0 mm | - | - | - |
| 1788238218 | 14.44° C | 40% | 1024.9 hPa | 0 mm | - | - | - |
| 1788237618 | 14.44° C | 39% | 1024.9 hPa | 0 mm | - | - | - |
| 1788236417 | 15° C | 37% | 1024.9 hPa | 0 mm | - | - | - |
| 1788222018 | 17.22° C | 31% | 1024.9 hPa | 0 mm | - | - | - |
| 1788221417 | 17.22° C | 32% | 1024.9 hPa | 0 mm | - | - | - |
* Rain latest hour (hover to see other rain measurements)
** Current wind speed in m/s (hover to see current wind gust speed)